sensor_id;sensor_type;location;lat;lon;timestamp;temperature;humidity
22430;DHT22;11382;48.086;11.632;2023-04-25T00:00:44;7.10;99.90
22430;DHT22;11382;48.086;11.632;2023-04-25T00:03:12;7.10;99.90
22430;DHT22;11382;48.086;11.632;2023-04-25T00:05:40;7.10;99.90
22430;DHT22;11382;48.086;11.632;2023-04-25T00:08:10;7.10;99.90
22430;DHT22;11382;48.086;11.632;2023-04-25T00:10:37;7.10;99.90
22430;DHT22;11382;48.086;11.632;2023-04-25T00:13:05;7.20;99.90
22430;DHT22;11382;48.086;11.632;2023-04-25T00:15:34;7.20;99.90
22430;DHT22;11382;48.086;11.632;2023-04-25T00:18:04;7.20;99.90
22430;DHT22;11382;48.086;11.632;2023-04-25T00:20:33;7.30;99.90
22430;DHT22;11382;48.086;11.632;2023-04-25T00:23:02;7.30;99.90
22430;DHT22;11382;48.086;11.632;2023-04-25T00:25:31;7.30;99.90
22430;DHT22;11382;48.086;11.632;2023-04-25T00:27:59;7.30;99.90
22430;DHT22;11382;48.086;11.632;2023-04-25T00:30:27;7.30;99.90
22430;DHT22;11382;48.086;11.632;2023-04-25T00:32:55;7.30;99.90
22430;DHT22;11382;48.086;11.632;2023-04-25T00:35:23;7.30;99.90
22430;DHT22;11382;48.086;11.632;2023-04-25T00:37:51;7.30;99.90
22430;DHT22;11382;48.086;11.632;2023-04-25T00:40:19;7.30;99.90
22430;DHT22;11382;48.086;11.632;2023-04-25T00:42:50;7.30;99.90
22430;DHT22;11382;48.086;11.632;2023-04-25T00:45:19;7.40;99.90
22430;DHT22;11382;48.086;11.632;2023-04-25T00:47:47;7.40;99.90
22430;DHT22;11382;48.086;11.632;2023-04-25T00:50:15;7.40;99.90
22430;DHT22;11382;48.086;11.632;2023-04-25T00:52:44;7.40;99.90
22430;DHT22;11382;48.086;11.632;2023-04-25T00:55:12;7.30;99.90
22430;DHT22;11382;48.086;11.632;2023-04-25T00:57:42;7.40;99.90
22430;DHT22;11382;48.086;11.632;2023-04-25T01:00:13;7.40;99.90
22430;DHT22;11382;48.086;11.632;2023-04-25T01:02:41;7.40;99.90
22430;DHT22;11382;48.086;11.632;2023-04-25T01:05:10;7.40;99.90
22430;DHT22;11382;48.086;11.632;2023-04-25T01:07:38;7.30;99.90
22430;DHT22;11382;48.086;11.632;2023-04-25T01:10:08;7.30;99.90
22430;DHT22;11382;48.086;11.632;2023-04-25T01:12:37;7.30;99.90
22430;DHT22;11382;48.086;11.632;2023-04-25T01:15:06;7.20;99.90
22430;DHT22;11382;48.086;11.632;2023-04-25T01:17:35;7.20;99.90
22430;DHT22;11382;48.086;11.632;2023-04-25T01:20:04;7.30;99.90
22430;DHT22;11382;48.086;11.632;2023-04-25T01:22:35;7.20;99.90
22430;DHT22;11382;48.086;11.632;2023-04-25T01:25:03;7.30;99.90
22430;DHT22;11382;48.086;11.632;2023-04-25T01:27:32;7.30;99.90
22430;DHT22;11382;48.086;11.632;2023-04-25T01:30:00;7.30;99.90
22430;DHT22;11382;48.086;11.632;2023-04-25T01:32:29;7.40;99.90
22430;DHT22;11382;48.086;11.632;2023-04-25T01:35:05;7.30;99.90
22430;DHT22;11382;48.086;11.632;2023-04-25T01:37:37;7.40;99.90
22430;DHT22;11382;48.086;11.632;2023-04-25T01:40:06;7.40;99.90
22430;DHT22;11382;48.086;11.632;2023-04-25T01:42:36;7.30;99.90
22430;DHT22;11382;48.086;11.632;2023-04-25T01:45:06;7.30;99.90
22430;DHT22;11382;48.086;11.632;2023-04-25T01:47:34;7.20;99.90
22430;DHT22;11382;48.086;11.632;2023-04-25T01:50:03;7.20;99.90
22430;DHT22;11382;48.086;11.632;2023-04-25T01:52:32;7.10;99.90
22430;DHT22;11382;48.086;11.632;2023-04-25T01:55:02;7.10;99.90
22430;DHT22;11382;48.086;11.632;2023-04-25T01:57:33;7.00;99.90
22430;DHT22;11382;48.086;11.632;2023-04-25T02:00:03;6.90;99.90
22430;DHT22;11382;48.086;11.632;2023-04-25T02:02:40;6.90;99.90
22430;DHT22;11382;48.086;11.632;2023-04-25T02:05:21;6.80;99.90
22430;DHT22;11382;48.086;11.632;2023-04-25T02:07:49;6.80;99.90
22430;DHT22;11382;48.086;11.632;2023-04-25T02:10:18;6.70;99.90
22430;DHT22;11382;48.086;11.632;2023-04-25T02:13:00;6.80;99.90
22430;DHT22;11382;48.086;11.632;2023-04-25T02:15:42;6.80;99.90
22430;DHT22;11382;48.086;11.632;2023-04-25T02:18:15;6.60;99.90
22430;DHT22;11382;48.086;11.632;2023-04-25T02:20:44;6.60;99.90
22430;DHT22;11382;48.086;11.632;2023-04-25T02:23:12;6.60;99.90
22430;DHT22;11382;48.086;11.632;2023-04-25T02:25:43;6.50;99.90
22430;DHT22;11382;48.086;11.632;2023-04-25T02:28:11;6.50;99.90
22430;DHT22;11382;48.086;11.632;2023-04-25T02:30:39;6.50;99.90
22430;DHT22;11382;48.086;11.632;2023-04-25T02:33:07;6.60;99.90
22430;DHT22;11382;48.086;11.632;2023-04-25T02:35:35;6.50;99.90
22430;DHT22;11382;48.086;11.632;2023-04-25T02:38:03;6.50;99.90
22430;DHT22;11382;48.086;11.632;2023-04-25T02:40:32;6.60;99.90
22430;DHT22;11382;48.086;11.632;2023-04-25T02:43:01;6.60;99.90
22430;DHT22;11382;48.086;11.632;2023-04-25T02:45:29;6.70;99.90
22430;DHT22;11382;48.086;11.632;2023-04-25T02:47:57;6.70;99.90
22430;DHT22;11382;48.086;11.632;2023-04-25T02:50:25;6.70;99.90
22430;DHT22;11382;48.086;11.632;2023-04-25T02:52:53;6.70;99.90
22430;DHT22;11382;48.086;11.632;2023-04-25T02:55:26;6.70;99.90
22430;DHT22;11382;48.086;11.632;2023-04-25T02:57:55;6.80;99.90
22430;DHT22;11382;48.086;11.632;2023-04-25T03:00:38;6.70;99.90
22430;DHT22;11382;48.086;11.632;2023-04-25T03:03:06;6.80;99.90
22430;DHT22;11382;48.086;11.632;2023-04-25T03:05:34;6.80;99.90
22430;DHT22;11382;48.086;11.632;2023-04-25T03:08:02;6.90;99.90
22430;DHT22;11382;48.086;11.632;2023-04-25T03:10:32;7.00;99.90
22430;DHT22;11382;48.086;11.632;2023-04-25T03:13:05;7.00;99.90
22430;DHT22;11382;48.086;11.632;2023-04-25T03:15:35;7.00;99.90
22430;DHT22;11382;48.086;11.632;2023-04-25T03:18:04;7.00;99.90
22430;DHT22;11382;48.086;11.632;2023-04-25T03:20:32;6.90;99.90
22430;DHT22;11382;48.086;11.632;2023-04-25T03:23:02;6.90;99.90
22430;DHT22;11382;48.086;11.632;2023-04-25T03:25:30;6.80;99.90
22430;DHT22;11382;48.086;11.632;2023-04-25T03:27:58;6.80;99.90
22430;DHT22;11382;48.086;11.632;2023-04-25T03:30:26;6.70;99.90
22430;DHT22;11382;48.086;11.632;2023-04-25T03:32:54;6.70;99.90
22430;DHT22;11382;48.086;11.632;2023-04-25T03:35:23;6.70;99.90
22430;DHT22;11382;48.086;11.632;2023-04-25T03:37:52;6.70;99.90
22430;DHT22;11382;48.086;11.632;2023-04-25T03:40:25;6.70;99.90
22430;DHT22;11382;48.086;11.632;2023-04-25T03:43:17;6.60;99.90
22430;DHT22;11382;48.086;11.632;2023-04-25T03:45:56;6.60;99.90
22430;DHT22;11382;48.086;11.632;2023-04-25T03:48:25;6.50;99.90
22430;DHT22;11382;48.086;11.632;2023-04-25T03:50:55;6.50;99.90
22430;DHT22;11382;48.086;11.632;2023-04-25T03:53:23;6.40;99.90
22430;DHT22;11382;48.086;11.632;2023-04-25T03:56:23;6.30;99.90
22430;DHT22;11382;48.086;11.632;2023-04-25T03:58:59;6.30;99.90
22430;DHT22;11382;48.086;11.632;2023-04-25T04:01:29;6.30;99.90
22430;DHT22;11382;48.086;11.632;2023-04-25T04:03:57;6.30;99.90
22430;DHT22;11382;48.086;11.632;2023-04-25T04:06:27;6.30;99.90
22430;DHT22;11382;48.086;11.632;2023-04-25T04:09:03;6.40;99.90
22430;DHT22;11382;48.086;11.632;2023-04-25T04:11:36;6.30;99.90
22430;DHT22;11382;48.086;11.632;2023-04-25T04:14:05;6.30;99.90
22430;DHT22;11382;48.086;11.632;2023-04-25T04:16:34;6.30;99.90
22430;DHT22;11382;48.086;11.632;2023-04-25T04:19:02;6.30;99.90
22430;DHT22;11382;48.086;11.632;2023-04-25T04:21:32;6.30;99.90
22430;DHT22;11382;48.086;11.632;2023-04-25T04:24:00;6.30;99.90
22430;DHT22;11382;48.086;11.632;2023-04-25T04:26:33;6.40;99.90
22430;DHT22;11382;48.086;11.632;2023-04-25T04:29:21;6.40;99.90
22430;DHT22;11382;48.086;11.632;2023-04-25T04:32:04;6.50;99.90
22430;DHT22;11382;48.086;11.632;2023-04-25T04:34:33;6.60;99.90
22430;DHT22;11382;48.086;11.632;2023-04-25T04:37:03;6.60;99.90
22430;DHT22;11382;48.086;11.632;2023-04-25T04:39:31;6.50;99.90
22430;DHT22;11382;48.086;11.632;2023-04-25T04:42:05;6.50;99.90
22430;DHT22;11382;48.086;11.632;2023-04-25T04:44:59;6.50;99.90
22430;DHT22;11382;48.086;11.632;2023-04-25T04:47:51;6.50;99.90
22430;DHT22;11382;48.086;11.632;2023-04-25T04:50:35;6.60;99.90
22430;DHT22;11382;48.086;11.632;2023-04-25T04:53:26;6.50;99.90
22430;DHT22;11382;48.086;11.632;2023-04-25T04:56:29;6.40;99.90
22430;DHT22;11382;48.086;11.632;2023-04-25T04:59:16;6.40;99.90
22430;DHT22;11382;48.086;11.632;2023-04-25T05:02:16;6.40;99.90
22430;DHT22;11382;48.086;11.632;2023-04-25T05:04:57;6.40;99.90
22430;DHT22;11382;48.086;11.632;2023-04-25T05:08:04;6.50;99.90
22430;DHT22;11382;48.086;11.632;2023-04-25T05:11:03;6.70;99.90
22430;DHT22;11382;48.086;11.632;2023-04-25T05:13:37;6.80;99.90
22430;DHT22;11382;48.086;11.632;2023-04-25T05:16:17;6.80;99.90
22430;DHT22;11382;48.086;11.632;2023-04-25T05:19:11;6.80;99.90
22430;DHT22;11382;48.086;11.632;2023-04-25T05:22:01;6.90;99.90
22430;DHT22;11382;48.086;11.632;2023-04-25T05:24:37;6.80;99.90
22430;DHT22;11382;48.086;11.632;2023-04-25T05:27:29;6.80;99.90
22430;DHT22;11382;48.086;11.632;2023-04-25T05:30:21;6.90;99.90
22430;DHT22;11382;48.086;11.632;2023-04-25T05:32:58;6.90;99.90
22430;DHT22;11382;48.086;11.632;2023-04-25T05:35:26;6.90;99.90
22430;DHT22;11382;48.086;11.632;2023-04-25T05:37:54;6.80;99.90
22430;DHT22;11382;48.086;11.632;2023-04-25T05:40:35;7.10;99.90
22430;DHT22;11382;48.086;11.632;2023-04-25T05:43:16;7.40;99.90
22430;DHT22;11382;48.086;11.632;2023-04-25T05:45:56;7.50;99.90
22430;DHT22;11382;48.086;11.632;2023-04-25T05:48:30;7.70;99.90
22430;DHT22;11382;48.086;11.632;2023-04-25T05:51:04;7.70;99.90
22430;DHT22;11382;48.086;11.632;2023-04-25T05:53:51;7.80;99.90
22430;DHT22;11382;48.086;11.632;2023-04-25T05:56:19;7.80;99.90
22430;DHT22;11382;48.086;11.632;2023-04-25T05:58:52;8.00;99.90
22430;DHT22;11382;48.086;11.632;2023-04-25T06:01:22;9.20;99.90
22430;DHT22;11382;48.086;11.632;2023-04-25T06:03:50;10.60;99.90
22430;DHT22;11382;48.086;11.632;2023-04-25T06:06:19;10.60;99.90
22430;DHT22;11382;48.086;11.632;2023-04-25T06:08:47;10.20;99.90
22430;DHT22;11382;48.086;11.632;2023-04-25T06:11:15;9.80;99.90
22430;DHT22;11382;48.086;11.632;2023-04-25T06:13:43;9.70;99.90
22430;DHT22;11382;48.086;11.632;2023-04-25T06:16:13;9.30;99.90
22430;DHT22;11382;48.086;11.632;2023-04-25T06:18:41;8.70;99.90
22430;DHT22;11382;48.086;11.632;2023-04-25T06:21:09;8.00;99.90
22430;DHT22;11382;48.086;11.632;2023-04-25T06:23:37;7.50;99.90
22430;DHT22;11382;48.086;11.632;2023-04-25T06:26:11;7.40;99.90
22430;DHT22;11382;48.086;11.632;2023-04-25T06:28:44;7.30;99.90
22430;DHT22;11382;48.086;11.632;2023-04-25T06:31:13;7.20;99.90
22430;DHT22;11382;48.086;11.632;2023-04-25T06:33:43;7.10;99.90
22430;DHT22;11382;48.086;11.632;2023-04-25T06:36:11;7.00;99.90
22430;DHT22;11382;48.086;11.632;2023-04-25T06:38:40;7.10;99.90
22430;DHT22;11382;48.086;11.632;2023-04-25T06:41:08;7.40;99.90
22430;DHT22;11382;48.086;11.632;2023-04-25T06:43:36;7.70;99.90
22430;DHT22;11382;48.086;11.632;2023-04-25T06:46:04;8.10;99.90
22430;DHT22;11382;48.086;11.632;2023-04-25T06:48:40;8.40;99.90
22430;DHT22;11382;48.086;11.632;2023-04-25T06:51:08;9.50;99.90
22430;DHT22;11382;48.086;11.632;2023-04-25T06:53:39;9.90;99.90
22430;DHT22;11382;48.086;11.632;2023-04-25T06:56:11;9.70;99.90
22430;DHT22;11382;48.086;11.632;2023-04-25T06:58:47;9.80;99.90
22430;DHT22;11382;48.086;11.632;2023-04-25T07:01:24;9.80;99.90
22430;DHT22;11382;48.086;11.632;2023-04-25T07:03:53;10.20;99.90
22430;DHT22;11382;48.086;11.632;2023-04-25T07:06:22;10.90;99.90
22430;DHT22;11382;48.086;11.632;2023-04-25T07:08:54;11.70;99.90
22430;DHT22;11382;48.086;11.632;2023-04-25T07:11:23;11.10;99.90
22430;DHT22;11382;48.086;11.632;2023-04-25T07:13:51;10.30;99.90
22430;DHT22;11382;48.086;11.632;2023-04-25T07:16:19;9.70;99.90
22430;DHT22;11382;48.086;11.632;2023-04-25T07:18:47;9.50;99.90
22430;DHT22;11382;48.086;11.632;2023-04-25T07:21:17;9.40;99.90
22430;DHT22;11382;48.086;11.632;2023-04-25T07:23:46;9.30;99.90
22430;DHT22;11382;48.086;11.632;2023-04-25T07:26:18;9.30;99.90
22430;DHT22;11382;48.086;11.632;2023-04-25T07:29:16;9.30;99.90
22430;DHT22;11382;48.086;11.632;2023-04-25T07:31:44;9.30;99.90
22430;DHT22;11382;48.086;11.632;2023-04-25T07:34:12;9.30;99.90
22430;DHT22;11382;48.086;11.632;2023-04-25T07:36:42;9.40;99.90
22430;DHT22;11382;48.086;11.632;2023-04-25T07:39:10;9.80;99.90
22430;DHT22;11382;48.086;11.632;2023-04-25T07:41:38;10.10;99.90
22430;DHT22;11382;48.086;11.632;2023-04-25T07:44:09;10.60;99.90
22430;DHT22;11382;48.086;11.632;2023-04-25T07:46:37;11.30;99.90
22430;DHT22;11382;48.086;11.632;2023-04-25T07:49:06;12.20;99.90
22430;DHT22;11382;48.086;11.632;2023-04-25T07:51:35;13.90;99.90
22430;DHT22;11382;48.086;11.632;2023-04-25T07:54:09;16.60;99.90
22430;DHT22;11382;48.086;11.632;2023-04-25T07:56:42;19.00;99.90
22430;DHT22;11382;48.086;11.632;2023-04-25T07:59:20;19.90;95.90
22430;DHT22;11382;48.086;11.632;2023-04-25T08:01:48;20.80;95.10
22430;DHT22;11382;48.086;11.632;2023-04-25T08:04:18;21.50;92.20
22430;DHT22;11382;48.086;11.632;2023-04-25T08:06:54;21.90;91.00
22430;DHT22;11382;48.086;11.632;2023-04-25T08:09:27;21.50;90.10
22430;DHT22;11382;48.086;11.632;2023-04-25T08:11:56;20.70;89.80
22430;DHT22;11382;48.086;11.632;2023-04-25T08:14:30;19.60;90.90
22430;DHT22;11382;48.086;11.632;2023-04-25T08:17:03;20.00;90.60
22430;DHT22;11382;48.086;11.632;2023-04-25T08:19:37;20.90;88.50
22430;DHT22;11382;48.086;11.632;2023-04-25T08:22:08;19.20;90.20
22430;DHT22;11382;48.086;11.632;2023-04-25T08:24:48;18.80;92.30
22430;DHT22;11382;48.086;11.632;2023-04-25T08:27:18;17.70;92.90
22430;DHT22;11382;48.086;11.632;2023-04-25T08:29:47;17.50;93.90
22430;DHT22;11382;48.086;11.632;2023-04-25T08:32:18;18.40;94.00
22430;DHT22;11382;48.086;11.632;2023-04-25T08:35:01;19.00;91.00
22430;DHT22;11382;48.086;11.632;2023-04-25T08:37:29;17.20;92.50
22430;DHT22;11382;48.086;11.632;2023-04-25T08:40:04;16.10;93.80
22430;DHT22;11382;48.086;11.632;2023-04-25T08:42:54;15.30;96.20
22430;DHT22;11382;48.086;11.632;2023-04-25T08:45:23;14.90;98.30
22430;DHT22;11382;48.086;11.632;2023-04-25T08:47:53;14.30;98.20
22430;DHT22;11382;48.086;11.632;2023-04-25T08:50:23;14.00;99.90
22430;DHT22;11382;48.086;11.632;2023-04-25T08:52:54;14.20;99.90
22430;DHT22;11382;48.086;11.632;2023-04-25T08:55:28;17.10;97.40
22430;DHT22;11382;48.086;11.632;2023-04-25T08:57:59;19.90;92.60
22430;DHT22;11382;48.086;11.632;2023-04-25T09:00:29;21.70;88.30
22430;DHT22;11382;48.086;11.632;2023-04-25T09:02:57;22.40;80.80
22430;DHT22;11382;48.086;11.632;2023-04-25T09:05:32;21.70;79.50
22430;DHT22;11382;48.086;11.632;2023-04-25T09:08:01;22.10;78.30
22430;DHT22;11382;48.086;11.632;2023-04-25T09:10:30;22.80;77.50
22430;DHT22;11382;48.086;11.632;2023-04-25T09:13:03;23.90;74.90
22430;DHT22;11382;48.086;11.632;2023-04-25T09:15:47;25.90;68.20
22430;DHT22;11382;48.086;11.632;2023-04-25T09:18:33;24.20;68.00
22430;DHT22;11382;48.086;11.632;2023-04-25T09:21:06;22.10;64.70
22430;DHT22;11382;48.086;11.632;2023-04-25T09:23:41;19.60;72.40
22430;DHT22;11382;48.086;11.632;2023-04-25T09:26:14;19.30;78.40
22430;DHT22;11382;48.086;11.632;2023-04-25T09:28:43;18.70;77.40
22430;DHT22;11382;48.086;11.632;2023-04-25T09:31:21;17.60;82.10
22430;DHT22;11382;48.086;11.632;2023-04-25T09:33:58;18.30;85.80
22430;DHT22;11382;48.086;11.632;2023-04-25T09:36:30;21.60;74.80
22430;DHT22;11382;48.086;11.632;2023-04-25T09:39:12;23.00;70.30
22430;DHT22;11382;48.086;11.632;2023-04-25T09:41:53;23.20;65.80
22430;DHT22;11382;48.086;11.632;2023-04-25T09:44:23;22.20;69.60
22430;DHT22;11382;48.086;11.632;2023-04-25T09:46:52;20.20;73.20
22430;DHT22;11382;48.086;11.632;2023-04-25T09:49:25;19.40;75.20
22430;DHT22;11382;48.086;11.632;2023-04-25T09:51:59;18.60;78.20
22430;DHT22;11382;48.086;11.632;2023-04-25T09:54:40;17.30;78.00
22430;DHT22;11382;48.086;11.632;2023-04-25T09:57:15;16.40;82.70
22430;DHT22;11382;48.086;11.632;2023-04-25T09:59:45;16.30;87.10
22430;DHT22;11382;48.086;11.632;2023-04-25T10:02:16;16.00;87.10
22430;DHT22;11382;48.086;11.632;2023-04-25T10:04:48;15.90;88.70
22430;DHT22;11382;48.086;11.632;2023-04-25T10:07:25;15.30;87.80
22430;DHT22;11382;48.086;11.632;2023-04-25T10:09:58;14.90;90.50
22430;DHT22;11382;48.086;11.632;2023-04-25T10:12:29;14.60;89.00
22430;DHT22;11382;48.086;11.632;2023-04-25T10:14:58;14.20;90.60
22430;DHT22;11382;48.086;11.632;2023-04-25T10:17:27;14.00;91.40
22430;DHT22;11382;48.086;11.632;2023-04-25T10:19:56;13.90;91.50
22430;DHT22;11382;48.086;11.632;2023-04-25T10:22:29;13.90;92.60
22430;DHT22;11382;48.086;11.632;2023-04-25T10:24:59;14.00;93.60
22430;DHT22;11382;48.086;11.632;2023-04-25T10:27:29;14.30;93.30
22430;DHT22;11382;48.086;11.632;2023-04-25T10:30:01;14.60;92.90
22430;DHT22;11382;48.086;11.632;2023-04-25T10:32:31;16.50;91.10
22430;DHT22;11382;48.086;11.632;2023-04-25T10:35:10;19.50;87.00
22430;DHT22;11382;48.086;11.632;2023-04-25T10:37:42;22.20;76.50
22430;DHT22;11382;48.086;11.632;2023-04-25T10:40:24;22.50;70.90
22430;DHT22;11382;48.086;11.632;2023-04-25T10:42:53;21.30;70.30
22430;DHT22;11382;48.086;11.632;2023-04-25T10:45:22;18.80;74.40
22430;DHT22;11382;48.086;11.632;2023-04-25T10:47:50;17.40;81.00
22430;DHT22;11382;48.086;11.632;2023-04-25T10:50:18;16.40;84.80
22430;DHT22;11382;48.086;11.632;2023-04-25T10:52:46;15.30;90.80
22430;DHT22;11382;48.086;11.632;2023-04-25T10:55:14;13.60;92.90
22430;DHT22;11382;48.086;11.632;2023-04-25T10:57:44;12.50;95.20
22430;DHT22;11382;48.086;11.632;2023-04-25T11:00:16;12.00;96.10
22430;DHT22;11382;48.086;11.632;2023-04-25T11:02:48;11.80;99.80
22430;DHT22;11382;48.086;11.632;2023-04-25T11:05:23;11.80;99.90
22430;DHT22;11382;48.086;11.632;2023-04-25T11:07:53;11.70;99.90
22430;DHT22;11382;48.086;11.632;2023-04-25T11:10:44;11.60;99.90
22430;DHT22;11382;48.086;11.632;2023-04-25T11:13:12;11.60;99.90
22430;DHT22;11382;48.086;11.632;2023-04-25T11:15:42;11.50;99.90
22430;DHT22;11382;48.086;11.632;2023-04-25T11:18:10;11.50;99.90
22430;DHT22;11382;48.086;11.632;2023-04-25T11:20:38;11.60;99.90
22430;DHT22;11382;48.086;11.632;2023-04-25T11:23:06;12.00;99.90
22430;DHT22;11382;48.086;11.632;2023-04-25T11:25:34;12.20;99.90
22430;DHT22;11382;48.086;11.632;2023-04-25T11:28:04;11.70;99.90
22430;DHT22;11382;48.086;11.632;2023-04-25T11:30:32;11.00;99.90
22430;DHT22;11382;48.086;11.632;2023-04-25T11:33:01;10.50;99.90
22430;DHT22;11382;48.086;11.632;2023-04-25T11:35:30;10.00;99.90
22430;DHT22;11382;48.086;11.632;2023-04-25T11:38:01;9.70;99.90
22430;DHT22;11382;48.086;11.632;2023-04-25T11:40:30;9.40;99.90
22430;DHT22;11382;48.086;11.632;2023-04-25T11:43:00;9.20;99.90
22430;DHT22;11382;48.086;11.632;2023-04-25T11:45:28;9.30;99.90
22430;DHT22;11382;48.086;11.632;2023-04-25T11:47:57;9.70;99.90
22430;DHT22;11382;48.086;11.632;2023-04-25T11:50:28;10.00;99.90
22430;DHT22;11382;48.086;11.632;2023-04-25T11:52:56;9.90;99.90
22430;DHT22;11382;48.086;11.632;2023-04-25T11:55:24;10.00;99.90
22430;DHT22;11382;48.086;11.632;2023-04-25T11:57:53;9.90;99.90
22430;DHT22;11382;48.086;11.632;2023-04-25T12:00:22;9.90;99.90
22430;DHT22;11382;48.086;11.632;2023-04-25T12:02:52;9.80;99.90
22430;DHT22;11382;48.086;11.632;2023-04-25T12:05:24;9.50;99.90
22430;DHT22;11382;48.086;11.632;2023-04-25T12:08:11;9.40;99.90
22430;DHT22;11382;48.086;11.632;2023-04-25T12:10:41;9.40;99.90
22430;DHT22;11382;48.086;11.632;2023-04-25T12:13:20;9.40;99.90
22430;DHT22;11382;48.086;11.632;2023-04-25T12:15:48;9.40;99.90
22430;DHT22;11382;48.086;11.632;2023-04-25T12:18:19;9.50;99.90
22430;DHT22;11382;48.086;11.632;2023-04-25T12:20:47;9.80;99.90
22430;DHT22;11382;48.086;11.632;2023-04-25T12:35:33;9.40;99.90
22430;DHT22;11382;48.086;11.632;2023-04-25T12:38:01;9.70;99.90
22430;DHT22;11382;48.086;11.632;2023-04-25T12:40:29;10.00;99.90
22430;DHT22;11382;48.086;11.632;2023-04-25T12:42:57;10.30;99.90
22430;DHT22;11382;48.086;11.632;2023-04-25T12:45:25;10.60;99.90
22430;DHT22;11382;48.086;11.632;2023-04-25T12:47:53;11.30;99.90
22430;DHT22;11382;48.086;11.632;2023-04-25T12:50:21;11.80;99.90
22430;DHT22;11382;48.086;11.632;2023-04-25T12:52:50;11.90;99.90
22430;DHT22;11382;48.086;11.632;2023-04-25T12:55:18;11.70;99.90
22430;DHT22;11382;48.086;11.632;2023-04-25T12:57:46;11.30;99.90
22430;DHT22;11382;48.086;11.632;2023-04-25T13:00:15;11.00;99.90
22430;DHT22;11382;48.086;11.632;2023-04-25T13:02:44;10.60;99.90
22430;DHT22;11382;48.086;11.632;2023-04-25T13:05:13;10.50;99.90
22430;DHT22;11382;48.086;11.632;2023-04-25T13:07:41;10.60;99.90
22430;DHT22;11382;48.086;11.632;2023-04-25T13:10:11;10.50;99.90
22430;DHT22;11382;48.086;11.632;2023-04-25T13:12:39;10.30;99.90
22430;DHT22;11382;48.086;11.632;2023-04-25T13:15:08;10.30;99.90
22430;DHT22;11382;48.086;11.632;2023-04-25T13:17:37;10.50;99.90
22430;DHT22;11382;48.086;11.632;2023-04-25T13:20:06;10.70;99.90
22430;DHT22;11382;48.086;11.632;2023-04-25T13:22:37;10.70;99.90
22430;DHT22;11382;48.086;11.632;2023-04-25T13:25:06;10.70;99.90
22430;DHT22;11382;48.086;11.632;2023-04-25T13:27:36;10.40;99.90
22430;DHT22;11382;48.086;11.632;2023-04-25T13:30:07;10.50;99.90
22430;DHT22;11382;48.086;11.632;2023-04-25T13:32:36;10.70;99.90
22430;DHT22;11382;48.086;11.632;2023-04-25T13:35:07;10.90;99.90
22430;DHT22;11382;48.086;11.632;2023-04-25T13:37:37;11.10;99.90
22430;DHT22;11382;48.086;11.632;2023-04-25T13:40:07;10.90;99.90
22430;DHT22;11382;48.086;11.632;2023-04-25T13:42:38;10.50;99.90
22430;DHT22;11382;48.086;11.632;2023-04-25T13:45:07;10.10;99.90
22430;DHT22;11382;48.086;11.632;2023-04-25T13:47:35;10.20;99.90
22430;DHT22;11382;48.086;11.632;2023-04-25T13:50:04;10.60;99.90
22430;DHT22;11382;48.086;11.632;2023-04-25T13:52:34;11.00;99.90
22430;DHT22;11382;48.086;11.632;2023-04-25T13:55:02;11.10;99.90
22430;DHT22;11382;48.086;11.632;2023-04-25T13:57:30;10.80;99.90
22430;DHT22;11382;48.086;11.632;2023-04-25T14:00:00;10.40;99.90
22430;DHT22;11382;48.086;11.632;2023-04-25T14:02:32;9.40;99.90
22430;DHT22;11382;48.086;11.632;2023-04-25T14:05:00;9.00;99.90
22430;DHT22;11382;48.086;11.632;2023-04-25T14:07:28;9.00;99.90
22430;DHT22;11382;48.086;11.632;2023-04-25T14:09:57;9.00;99.90
22430;DHT22;11382;48.086;11.632;2023-04-25T14:12:25;9.00;99.90
22430;DHT22;11382;48.086;11.632;2023-04-25T14:14:53;8.90;99.90
22430;DHT22;11382;48.086;11.632;2023-04-25T14:17:22;8.60;99.90
22430;DHT22;11382;48.086;11.632;2023-04-25T14:19:50;8.80;99.90
22430;DHT22;11382;48.086;11.632;2023-04-25T14:22:18;9.00;99.90
22430;DHT22;11382;48.086;11.632;2023-04-25T14:24:46;9.50;99.90
22430;DHT22;11382;48.086;11.632;2023-04-25T14:27:14;9.70;99.90
22430;DHT22;11382;48.086;11.632;2023-04-25T14:29:42;9.50;99.90
22430;DHT22;11382;48.086;11.632;2023-04-25T14:32:10;9.40;99.90
22430;DHT22;11382;48.086;11.632;2023-04-25T14:34:40;9.50;99.90
22430;DHT22;11382;48.086;11.632;2023-04-25T14:37:08;9.40;99.90
22430;DHT22;11382;48.086;11.632;2023-04-25T14:39:36;9.20;99.90
22430;DHT22;11382;48.086;11.632;2023-04-25T14:42:04;9.20;99.90
22430;DHT22;11382;48.086;11.632;2023-04-25T14:44:32;9.40;99.90
22430;DHT22;11382;48.086;11.632;2023-04-25T14:47:00;9.60;99.90
22430;DHT22;11382;48.086;11.632;2023-04-25T14:49:28;10.10;99.90
22430;DHT22;11382;48.086;11.632;2023-04-25T14:51:58;10.60;99.90
22430;DHT22;11382;48.086;11.632;2023-04-25T14:54:26;10.40;99.90
22430;DHT22;11382;48.086;11.632;2023-04-25T14:56:54;10.50;99.90
22430;DHT22;11382;48.086;11.632;2023-04-25T14:59:23;10.50;99.90
22430;DHT22;11382;48.086;11.632;2023-04-25T15:01:51;10.40;99.90
22430;DHT22;11382;48.086;11.632;2023-04-25T15:04:19;10.30;99.90
22430;DHT22;11382;48.086;11.632;2023-04-25T15:06:47;10.30;99.90
22430;DHT22;11382;48.086;11.632;2023-04-25T15:09:17;10.20;99.90
22430;DHT22;11382;48.086;11.632;2023-04-25T15:11:45;10.10;99.90
22430;DHT22;11382;48.086;11.632;2023-04-25T15:14:13;9.70;99.90
22430;DHT22;11382;48.086;11.632;2023-04-25T15:16:41;9.60;99.90
22430;DHT22;11382;48.086;11.632;2023-04-25T15:19:09;9.60;99.90
22430;DHT22;11382;48.086;11.632;2023-04-25T15:21:37;9.50;99.90
22430;DHT22;11382;48.086;11.632;2023-04-25T15:24:05;9.50;99.90
22430;DHT22;11382;48.086;11.632;2023-04-25T15:26:36;9.50;99.90
22430;DHT22;11382;48.086;11.632;2023-04-25T15:29:04;9.80;99.90
22430;DHT22;11382;48.086;11.632;2023-04-25T15:31:33;9.80;99.90
22430;DHT22;11382;48.086;11.632;2023-04-25T15:34:01;9.80;99.90
22430;DHT22;11382;48.086;11.632;2023-04-25T15:36:30;9.70;99.90
22430;DHT22;11382;48.086;11.632;2023-04-25T15:38:58;9.70;99.90
22430;DHT22;11382;48.086;11.632;2023-04-25T15:41:26;9.80;99.90
22430;DHT22;11382;48.086;11.632;2023-04-25T15:43:55;9.90;99.90
22430;DHT22;11382;48.086;11.632;2023-04-25T15:46:23;9.90;99.90
22430;DHT22;11382;48.086;11.632;2023-04-25T15:48:51;9.70;99.90
22430;DHT22;11382;48.086;11.632;2023-04-25T15:51:20;9.50;99.90
22430;DHT22;11382;48.086;11.632;2023-04-25T15:53:48;9.50;99.90
22430;DHT22;11382;48.086;11.632;2023-04-25T15:56:16;9.40;99.90
22430;DHT22;11382;48.086;11.632;2023-04-25T15:58:44;9.40;99.90
22430;DHT22;11382;48.086;11.632;2023-04-25T16:01:14;9.50;99.90
22430;DHT22;11382;48.086;11.632;2023-04-25T16:03:42;9.60;99.90